sensor_id;sensor_type;location;lat;lon;timestamp;temperature;humidity
39889;DHT22;25563;50.844;4.308;2024-03-06T00:02:08;10.00;98.50
39889;DHT22;25563;50.844;4.308;2024-03-06T00:04:34;9.90;98.50
39889;DHT22;25563;50.844;4.308;2024-03-06T00:07:00;9.70;98.80
39889;DHT22;25563;50.844;4.308;2024-03-06T00:09:27;9.60;99.00
39889;DHT22;25563;50.844;4.308;2024-03-06T00:11:53;9.60;99.10
39889;DHT22;25563;50.844;4.308;2024-03-06T00:14:19;9.70;99.00
39889;DHT22;25563;50.844;4.308;2024-03-06T00:16:47;9.60;99.20
39889;DHT22;25563;50.844;4.308;2024-03-06T00:19:13;9.50;99.30
39889;DHT22;25563;50.844;4.308;2024-03-06T00:21:39;9.40;99.50
39889;DHT22;25563;50.844;4.308;2024-03-06T00:24:05;9.50;99.40
39889;DHT22;25563;50.844;4.308;2024-03-06T00:26:32;9.50;99.50
39889;DHT22;25563;50.844;4.308;2024-03-06T00:28:57;9.50;99.50
39889;DHT22;25563;50.844;4.308;2024-03-06T00:31:23;9.50;99.50
39889;DHT22;25563;50.844;4.308;2024-03-06T00:33:49;9.50;99.70
39889;DHT22;25563;50.844;4.308;2024-03-06T00:36:14;9.50;99.50
39889;DHT22;25563;50.844;4.308;2024-03-06T00:38:40;9.70;99.30
39889;DHT22;25563;50.844;4.308;2024-03-06T00:41:06;9.50;99.50
39889;DHT22;25563;50.844;4.308;2024-03-06T00:43:31;9.40;99.80
39889;DHT22;25563;50.844;4.308;2024-03-06T00:45:57;9.50;99.70
39889;DHT22;25563;50.844;4.308;2024-03-06T00:48:25;9.50;99.80
39889;DHT22;25563;50.844;4.308;2024-03-06T00:50:50;9.50;99.80
39889;DHT22;25563;50.844;4.308;2024-03-06T00:53:16;9.50;99.70
39889;DHT22;25563;50.844;4.308;2024-03-06T00:55:42;9.50;99.90
39889;DHT22;25563;50.844;4.308;2024-03-06T00:58:08;9.50;99.90
39889;DHT22;25563;50.844;4.308;2024-03-06T01:00:34;9.60;99.90
39889;DHT22;25563;50.844;4.308;2024-03-06T01:03:00;9.70;99.50
39889;DHT22;25563;50.844;4.308;2024-03-06T01:05:25;9.80;99.30
39889;DHT22;25563;50.844;4.308;2024-03-06T01:07:51;9.70;99.50
39889;DHT22;25563;50.844;4.308;2024-03-06T01:10:17;9.70;99.40
39889;DHT22;25563;50.844;4.308;2024-03-06T01:12:43;9.60;99.50
39889;DHT22;25563;50.844;4.308;2024-03-06T01:15:11;9.60;99.70
39889;DHT22;25563;50.844;4.308;2024-03-06T01:17:37;9.50;99.70
39889;DHT22;25563;50.844;4.308;2024-03-06T01:20:03;9.50;99.80
39889;DHT22;25563;50.844;4.308;2024-03-06T01:22:32;9.40;99.80
39889;DHT22;25563;50.844;4.308;2024-03-06T01:25:00;9.40;99.80
39889;DHT22;25563;50.844;4.308;2024-03-06T01:27:26;9.20;99.90
39889;DHT22;25563;50.844;4.308;2024-03-06T01:29:52;8.80;99.90
39889;DHT22;25563;50.844;4.308;2024-03-06T01:32:18;8.70;99.90
39889;DHT22;25563;50.844;4.308;2024-03-06T01:34:43;8.70;99.90
39889;DHT22;25563;50.844;4.308;2024-03-06T01:37:10;8.60;99.90
39889;DHT22;25563;50.844;4.308;2024-03-06T01:39:36;8.50;99.90
39889;DHT22;25563;50.844;4.308;2024-03-06T01:42:02;8.50;99.90
39889;DHT22;25563;50.844;4.308;2024-03-06T01:44:29;8.80;99.90
39889;DHT22;25563;50.844;4.308;2024-03-06T01:46:55;8.70;99.90
39889;DHT22;25563;50.844;4.308;2024-03-06T01:49:21;8.90;99.90
39889;DHT22;25563;50.844;4.308;2024-03-06T01:51:53;8.80;99.90
39889;DHT22;25563;50.844;4.308;2024-03-06T01:54:20;8.80;99.90
39889;DHT22;25563;50.844;4.308;2024-03-06T01:56:47;8.80;99.90
39889;DHT22;25563;50.844;4.308;2024-03-06T01:59:16;8.60;99.90
39889;DHT22;25563;50.844;4.308;2024-03-06T02:01:42;8.60;99.90
39889;DHT22;25563;50.844;4.308;2024-03-06T02:04:09;8.60;99.90
39889;DHT22;25563;50.844;4.308;2024-03-06T02:06:41;8.50;99.90
39889;DHT22;25563;50.844;4.308;2024-03-06T02:09:07;8.20;99.90
39889;DHT22;25563;50.844;4.308;2024-03-06T02:11:35;8.00;99.90
39889;DHT22;25563;50.844;4.308;2024-03-06T02:14:02;7.90;99.90
39889;DHT22;25563;50.844;4.308;2024-03-06T02:16:28;8.00;99.90
39889;DHT22;25563;50.844;4.308;2024-03-06T02:18:55;8.00;99.90
39889;DHT22;25563;50.844;4.308;2024-03-06T02:21:23;8.00;99.90
39889;DHT22;25563;50.844;4.308;2024-03-06T02:23:49;8.10;99.90
39889;DHT22;25563;50.844;4.308;2024-03-06T02:26:17;8.00;99.90
39889;DHT22;25563;50.844;4.308;2024-03-06T02:29:01;8.00;99.90
39889;DHT22;25563;50.844;4.308;2024-03-06T02:31:27;8.10;99.90
39889;DHT22;25563;50.844;4.308;2024-03-06T02:33:53;8.00;99.90
39889;DHT22;25563;50.844;4.308;2024-03-06T02:36:19;8.00;99.90
39889;DHT22;25563;50.844;4.308;2024-03-06T02:38:45;8.00;99.90
39889;DHT22;25563;50.844;4.308;2024-03-06T02:41:12;8.10;99.90
39889;DHT22;25563;50.844;4.308;2024-03-06T02:43:39;8.10;99.90
39889;DHT22;25563;50.844;4.308;2024-03-06T02:46:05;8.10;99.90
39889;DHT22;25563;50.844;4.308;2024-03-06T02:48:31;8.10;99.90
39889;DHT22;25563;50.844;4.308;2024-03-06T02:50:58;7.90;99.90
39889;DHT22;25563;50.844;4.308;2024-03-06T02:53:24;7.80;99.90
39889;DHT22;25563;50.844;4.308;2024-03-06T02:55:51;7.80;99.90
39889;DHT22;25563;50.844;4.308;2024-03-06T02:58:16;7.80;99.90
39889;DHT22;25563;50.844;4.308;2024-03-06T03:00:45;7.80;99.90
39889;DHT22;25563;50.844;4.308;2024-03-06T03:03:12;7.80;99.90
39889;DHT22;25563;50.844;4.308;2024-03-06T03:05:38;7.90;99.90
39889;DHT22;25563;50.844;4.308;2024-03-06T03:08:07;8.00;99.90
39889;DHT22;25563;50.844;4.308;2024-03-06T03:10:33;8.00;99.90
39889;DHT22;25563;50.844;4.308;2024-03-06T03:13:02;7.90;99.90
39889;DHT22;25563;50.844;4.308;2024-03-06T03:15:27;7.80;99.90
39889;DHT22;25563;50.844;4.308;2024-03-06T03:17:53;7.70;99.90
39889;DHT22;25563;50.844;4.308;2024-03-06T03:20:20;7.70;99.90
39889;DHT22;25563;50.844;4.308;2024-03-06T03:22:46;7.70;99.90
39889;DHT22;25563;50.844;4.308;2024-03-06T03:25:12;7.60;99.90
39889;DHT22;25563;50.844;4.308;2024-03-06T03:27:39;7.60;99.90
39889;DHT22;25563;50.844;4.308;2024-03-06T03:30:09;7.50;99.90
39889;DHT22;25563;50.844;4.308;2024-03-06T03:32:36;7.50;99.90
39889;DHT22;25563;50.844;4.308;2024-03-06T03:35:02;7.50;99.90
39889;DHT22;25563;50.844;4.308;2024-03-06T03:37:29;7.50;99.90
39889;DHT22;25563;50.844;4.308;2024-03-06T03:39:55;7.50;99.90
39889;DHT22;25563;50.844;4.308;2024-03-06T03:42:21;7.50;99.90
39889;DHT22;25563;50.844;4.308;2024-03-06T03:44:47;7.40;99.90
39889;DHT22;25563;50.844;4.308;2024-03-06T03:47:13;7.40;99.90
39889;DHT22;25563;50.844;4.308;2024-03-06T03:49:38;7.40;99.90
39889;DHT22;25563;50.844;4.308;2024-03-06T03:52:04;7.40;99.90
39889;DHT22;25563;50.844;4.308;2024-03-06T03:54:30;7.40;99.90
39889;DHT22;25563;50.844;4.308;2024-03-06T03:56:56;7.40;99.90
39889;DHT22;25563;50.844;4.308;2024-03-06T03:59:23;7.40;99.90
39889;DHT22;25563;50.844;4.308;2024-03-06T04:01:48;7.40;99.90
39889;DHT22;25563;50.844;4.308;2024-03-06T04:04:15;7.40;99.90
39889;DHT22;25563;50.844;4.308;2024-03-06T04:06:41;7.40;99.90
39889;DHT22;25563;50.844;4.308;2024-03-06T04:09:07;7.40;99.90
39889;DHT22;25563;50.844;4.308;2024-03-06T04:11:39;7.40;99.90
39889;DHT22;25563;50.844;4.308;2024-03-06T04:14:05;7.40;99.90
39889;DHT22;25563;50.844;4.308;2024-03-06T04:16:32;7.40;99.90
39889;DHT22;25563;50.844;4.308;2024-03-06T04:18:58;7.40;99.90
39889;DHT22;25563;50.844;4.308;2024-03-06T04:21:24;7.40;99.90
39889;DHT22;25563;50.844;4.308;2024-03-06T04:23:50;7.40;99.90
39889;DHT22;25563;50.844;4.308;2024-03-06T04:26:17;7.40;99.90
39889;DHT22;25563;50.844;4.308;2024-03-06T04:28:43;7.30;99.90
39889;DHT22;25563;50.844;4.308;2024-03-06T04:31:10;7.40;99.90
39889;DHT22;25563;50.844;4.308;2024-03-06T04:33:36;7.30;99.90
39889;DHT22;25563;50.844;4.308;2024-03-06T04:36:03;7.30;99.90
39889;DHT22;25563;50.844;4.308;2024-03-06T04:38:31;7.40;99.90
39889;DHT22;25563;50.844;4.308;2024-03-06T04:40:57;7.40;99.90
39889;DHT22;25563;50.844;4.308;2024-03-06T04:43:23;7.40;99.90
39889;DHT22;25563;50.844;4.308;2024-03-06T04:45:48;7.40;99.90
39889;DHT22;25563;50.844;4.308;2024-03-06T04:48:14;7.40;99.90
39889;DHT22;25563;50.844;4.308;2024-03-06T04:50:40;7.40;99.90
39889;DHT22;25563;50.844;4.308;2024-03-06T04:53:07;7.40;99.90
39889;DHT22;25563;50.844;4.308;2024-03-06T04:55:33;7.20;99.90
39889;DHT22;25563;50.844;4.308;2024-03-06T04:58:02;7.30;99.90
39889;DHT22;25563;50.844;4.308;2024-03-06T05:00:28;7.30;99.90
39889;DHT22;25563;50.844;4.308;2024-03-06T05:02:54;7.30;99.90
39889;DHT22;25563;50.844;4.308;2024-03-06T05:05:22;7.20;99.90
39889;DHT22;25563;50.844;4.308;2024-03-06T05:07:48;7.20;99.90
39889;DHT22;25563;50.844;4.308;2024-03-06T05:10:14;7.20;99.90
39889;DHT22;25563;50.844;4.308;2024-03-06T05:12:42;7.20;99.90
39889;DHT22;25563;50.844;4.308;2024-03-06T05:15:08;7.20;99.90
39889;DHT22;25563;50.844;4.308;2024-03-06T05:17:34;7.10;99.90
39889;DHT22;25563;50.844;4.308;2024-03-06T05:20:00;7.10;99.90
39889;DHT22;25563;50.844;4.308;2024-03-06T05:22:25;7.10;99.90
39889;DHT22;25563;50.844;4.308;2024-03-06T05:24:51;7.10;99.90
39889;DHT22;25563;50.844;4.308;2024-03-06T05:27:18;7.10;99.90
39889;DHT22;25563;50.844;4.308;2024-03-06T05:29:44;7.20;99.90
39889;DHT22;25563;50.844;4.308;2024-03-06T05:32:10;7.20;99.90
39889;DHT22;25563;50.844;4.308;2024-03-06T05:34:35;7.20;99.90
39889;DHT22;25563;50.844;4.308;2024-03-06T05:37:02;7.20;99.90
39889;DHT22;25563;50.844;4.308;2024-03-06T05:39:31;7.20;99.90
39889;DHT22;25563;50.844;4.308;2024-03-06T05:42:01;7.20;99.90
39889;DHT22;25563;50.844;4.308;2024-03-06T05:44:29;7.20;99.90
39889;DHT22;25563;50.844;4.308;2024-03-06T05:46:56;7.20;99.90
39889;DHT22;25563;50.844;4.308;2024-03-06T05:49:22;7.20;99.90
39889;DHT22;25563;50.844;4.308;2024-03-06T05:51:48;7.30;99.90
39889;DHT22;25563;50.844;4.308;2024-03-06T05:54:14;7.40;99.90
39889;DHT22;25563;50.844;4.308;2024-03-06T05:56:39;7.40;99.90
39889;DHT22;25563;50.844;4.308;2024-03-06T05:59:05;7.40;99.90
39889;DHT22;25563;50.844;4.308;2024-03-06T06:01:34;7.20;99.90
39889;DHT22;25563;50.844;4.308;2024-03-06T06:04:01;7.30;99.90
39889;DHT22;25563;50.844;4.308;2024-03-06T06:06:27;7.40;99.90
39889;DHT22;25563;50.844;4.308;2024-03-06T06:08:52;7.40;99.90
39889;DHT22;25563;50.844;4.308;2024-03-06T06:11:18;7.30;99.90
39889;DHT22;25563;50.844;4.308;2024-03-06T06:13:44;7.30;99.90
39889;DHT22;25563;50.844;4.308;2024-03-06T06:16:12;7.20;99.90
39889;DHT22;25563;50.844;4.308;2024-03-06T06:18:40;7.10;99.90
39889;DHT22;25563;50.844;4.308;2024-03-06T06:21:07;7.10;99.90
39889;DHT22;25563;50.844;4.308;2024-03-06T06:23:34;7.00;99.90
39889;DHT22;25563;50.844;4.308;2024-03-06T06:26:00;7.10;99.90
39889;DHT22;25563;50.844;4.308;2024-03-06T06:28:26;7.10;99.90
39889;DHT22;25563;50.844;4.308;2024-03-06T06:30:52;7.20;99.90
39889;DHT22;25563;50.844;4.308;2024-03-06T06:33:20;7.20;99.90
39889;DHT22;25563;50.844;4.308;2024-03-06T06:35:49;7.10;99.90
39889;DHT22;25563;50.844;4.308;2024-03-06T06:38:14;7.20;99.90
39889;DHT22;25563;50.844;4.308;2024-03-06T06:40:40;7.10;99.90
39889;DHT22;25563;50.844;4.308;2024-03-06T06:43:08;7.20;99.90
39889;DHT22;25563;50.844;4.308;2024-03-06T06:45:34;7.20;99.90
39889;DHT22;25563;50.844;4.308;2024-03-06T06:48:00;7.30;99.90
39889;DHT22;25563;50.844;4.308;2024-03-06T06:50:25;7.30;99.90
39889;DHT22;25563;50.844;4.308;2024-03-06T06:52:52;7.30;99.90
39889;DHT22;25563;50.844;4.308;2024-03-06T06:55:18;7.30;99.90
39889;DHT22;25563;50.844;4.308;2024-03-06T06:57:48;7.40;99.90
39889;DHT22;25563;50.844;4.308;2024-03-06T07:00:14;7.40;99.90
39889;DHT22;25563;50.844;4.308;2024-03-06T07:02:44;7.50;99.90
39889;DHT22;25563;50.844;4.308;2024-03-06T07:05:11;7.50;99.90
39889;DHT22;25563;50.844;4.308;2024-03-06T07:07:37;7.60;99.90
39889;DHT22;25563;50.844;4.308;2024-03-06T07:10:04;7.70;99.90
39889;DHT22;25563;50.844;4.308;2024-03-06T07:12:30;7.80;99.90
39889;DHT22;25563;50.844;4.308;2024-03-06T07:14:56;7.90;99.90
39889;DHT22;25563;50.844;4.308;2024-03-06T07:17:22;7.90;99.90
39889;DHT22;25563;50.844;4.308;2024-03-06T07:19:48;7.90;99.90
39889;DHT22;25563;50.844;4.308;2024-03-06T07:22:13;8.20;99.90
39889;DHT22;25563;50.844;4.308;2024-03-06T07:24:40;8.10;99.90
39889;DHT22;25563;50.844;4.308;2024-03-06T07:27:09;7.90;99.90
39889;DHT22;25563;50.844;4.308;2024-03-06T07:29:35;7.60;99.90
39889;DHT22;25563;50.844;4.308;2024-03-06T07:32:01;7.50;99.90
39889;DHT22;25563;50.844;4.308;2024-03-06T07:34:28;7.60;99.90
39889;DHT22;25563;50.844;4.308;2024-03-06T07:36:55;7.70;99.90
39889;DHT22;25563;50.844;4.308;2024-03-06T07:39:21;7.70;99.90
39889;DHT22;25563;50.844;4.308;2024-03-06T07:41:47;7.70;99.90
39889;DHT22;25563;50.844;4.308;2024-03-06T07:44:13;7.70;99.90
39889;DHT22;25563;50.844;4.308;2024-03-06T07:46:39;7.70;99.90
39889;DHT22;25563;50.844;4.308;2024-03-06T07:49:05;7.80;99.90
39889;DHT22;25563;50.844;4.308;2024-03-06T07:51:34;7.90;99.90
39889;DHT22;25563;50.844;4.308;2024-03-06T07:54:00;7.90;99.90
39889;DHT22;25563;50.844;4.308;2024-03-06T07:56:26;8.00;99.90
39889;DHT22;25563;50.844;4.308;2024-03-06T07:58:52;8.10;99.90
39889;DHT22;25563;50.844;4.308;2024-03-06T08:01:21;8.40;99.90
39889;DHT22;25563;50.844;4.308;2024-03-06T08:03:47;8.70;99.90
39889;DHT22;25563;50.844;4.308;2024-03-06T08:06:13;8.40;99.90
39889;DHT22;25563;50.844;4.308;2024-03-06T08:08:43;8.40;99.90
39889;DHT22;25563;50.844;4.308;2024-03-06T08:11:10;8.40;99.90
39889;DHT22;25563;50.844;4.308;2024-03-06T08:13:37;8.40;99.90
39889;DHT22;25563;50.844;4.308;2024-03-06T08:16:04;8.40;99.90
39889;DHT22;25563;50.844;4.308;2024-03-06T08:18:30;8.60;99.90
39889;DHT22;25563;50.844;4.308;2024-03-06T08:20:56;8.70;99.90
39889;DHT22;25563;50.844;4.308;2024-03-06T08:23:23;8.90;99.90
39889;DHT22;25563;50.844;4.308;2024-03-06T08:25:49;8.70;99.90
39889;DHT22;25563;50.844;4.308;2024-03-06T08:28:15;8.70;99.90
39889;DHT22;25563;50.844;4.308;2024-03-06T08:30:42;8.60;99.90
39889;DHT22;25563;50.844;4.308;2024-03-06T08:33:09;8.70;99.90
39889;DHT22;25563;50.844;4.308;2024-03-06T08:35:35;9.00;99.90
39889;DHT22;25563;50.844;4.308;2024-03-06T08:38:02;9.20;99.90
39889;DHT22;25563;50.844;4.308;2024-03-06T08:40:29;8.70;99.90
39889;DHT22;25563;50.844;4.308;2024-03-06T08:42:55;8.50;99.90
39889;DHT22;25563;50.844;4.308;2024-03-06T08:45:21;8.50;99.90
39889;DHT22;25563;50.844;4.308;2024-03-06T08:47:49;8.60;99.90
39889;DHT22;25563;50.844;4.308;2024-03-06T08:50:14;8.80;99.90
39889;DHT22;25563;50.844;4.308;2024-03-06T08:52:40;9.20;99.90
39889;DHT22;25563;50.844;4.308;2024-03-06T08:55:07;9.20;99.90
39889;DHT22;25563;50.844;4.308;2024-03-06T08:57:34;9.00;99.90
39889;DHT22;25563;50.844;4.308;2024-03-06T08:59:59;9.10;99.90
39889;DHT22;25563;50.844;4.308;2024-03-06T09:02:25;9.10;99.90
39889;DHT22;25563;50.844;4.308;2024-03-06T09:04:53;9.20;99.90
39889;DHT22;25563;50.844;4.308;2024-03-06T09:07:19;9.20;99.90
39889;DHT22;25563;50.844;4.308;2024-03-06T09:09:45;9.10;99.90
39889;DHT22;25563;50.844;4.308;2024-03-06T09:12:11;9.50;99.90
39889;DHT22;25563;50.844;4.308;2024-03-06T09:14:38;9.50;99.90
39889;DHT22;25563;50.844;4.308;2024-03-06T09:17:05;9.80;99.90
39889;DHT22;25563;50.844;4.308;2024-03-06T09:19:31;9.70;99.90
39889;DHT22;25563;50.844;4.308;2024-03-06T09:21:57;9.70;99.90
39889;DHT22;25563;50.844;4.308;2024-03-06T09:24:24;9.90;99.90
39889;DHT22;25563;50.844;4.308;2024-03-06T09:26:51;9.90;99.90
39889;DHT22;25563;50.844;4.308;2024-03-06T09:29:17;9.90;99.90
39889;DHT22;25563;50.844;4.308;2024-03-06T09:31:43;9.80;99.90
39889;DHT22;25563;50.844;4.308;2024-03-06T09:34:09;9.90;99.90
39889;DHT22;25563;50.844;4.308;2024-03-06T09:36:48;10.20;99.90
39889;DHT22;25563;50.844;4.308;2024-03-06T09:39:19;10.10;99.90
39889;DHT22;25563;50.844;4.308;2024-03-06T09:41:50;10.50;99.90
39889;DHT22;25563;50.844;4.308;2024-03-06T09:44:16;10.30;99.90
39889;DHT22;25563;50.844;4.308;2024-03-06T09:46:47;10.60;99.90
39889;DHT22;25563;50.844;4.308;2024-03-06T09:49:15;10.60;99.90
39889;DHT22;25563;50.844;4.308;2024-03-06T09:51:46;10.50;99.90
39889;DHT22;25563;50.844;4.308;2024-03-06T09:54:16;10.50;99.90
39889;DHT22;25563;50.844;4.308;2024-03-06T09:56:51;10.70;99.90
39889;DHT22;25563;50.844;4.308;2024-03-06T09:59:18;10.70;99.90
39889;DHT22;25563;50.844;4.308;2024-03-06T10:01:54;10.70;99.90
39889;DHT22;25563;50.844;4.308;2024-03-06T10:04:24;10.70;99.90
39889;DHT22;25563;50.844;4.308;2024-03-06T10:06:51;11.20;99.90
39889;DHT22;25563;50.844;4.308;2024-03-06T10:09:20;11.20;99.80
39889;DHT22;25563;50.844;4.308;2024-03-06T10:11:46;11.10;99.90
39889;DHT22;25563;50.844;4.308;2024-03-06T10:14:12;11.20;99.70
39889;DHT22;25563;50.844;4.308;2024-03-06T10:16:58;11.10;99.90
39889;DHT22;25563;50.844;4.308;2024-03-06T10:19:27;11.30;99.80
39889;DHT22;25563;50.844;4.308;2024-03-06T10:21:57;11.50;99.40
39889;DHT22;25563;50.844;4.308;2024-03-06T10:24:27;12.00;98.70
39889;DHT22;25563;50.844;4.308;2024-03-06T10:26:56;12.10;98.60
39889;DHT22;25563;50.844;4.308;2024-03-06T10:29:24;12.00;98.70
39889;DHT22;25563;50.844;4.308;2024-03-06T10:31:55;11.80;99.00
39889;DHT22;25563;50.844;4.308;2024-03-06T10:34:24;11.90;98.90
39889;DHT22;25563;50.844;4.308;2024-03-06T10:36:58;11.90;98.90
39889;DHT22;25563;50.844;4.308;2024-03-06T10:39:24;12.20;98.30
39889;DHT22;25563;50.844;4.308;2024-03-06T10:41:55;12.30;98.30
39889;DHT22;25563;50.844;4.308;2024-03-06T10:44:27;12.50;97.90
39889;DHT22;25563;50.844;4.308;2024-03-06T10:49:42;12.80;97.60
39889;DHT22;25563;50.844;4.308;2024-03-06T10:52:09;13.10;97.10
39889;DHT22;25563;50.844;4.308;2024-03-06T10:54:35;13.10;97.20
39889;DHT22;25563;50.844;4.308;2024-03-06T10:57:09;13.10;96.70
39889;DHT22;25563;50.844;4.308;2024-03-06T10:59:35;13.30;96.40
39889;DHT22;25563;50.844;4.308;2024-03-06T11:02:01;13.50;96.00
39889;DHT22;25563;50.844;4.308;2024-03-06T11:04:30;13.50;95.80
39889;DHT22;25563;50.844;4.308;2024-03-06T11:07:02;13.30;95.80
39889;DHT22;25563;50.844;4.308;2024-03-06T11:09:35;13.30;96.00
39889;DHT22;25563;50.844;4.308;2024-03-06T11:12:02;13.30;95.60
39889;DHT22;25563;50.844;4.308;2024-03-06T11:14:31;13.70;94.30
39889;DHT22;25563;50.844;4.308;2024-03-06T11:16:58;13.60;94.70
39889;DHT22;25563;50.844;4.308;2024-03-06T11:19:25;13.60;94.80
39889;DHT22;25563;50.844;4.308;2024-03-06T11:21:57;14.00;94.10
39889;DHT22;25563;50.844;4.308;2024-03-06T11:24:24;13.90;94.60
39889;DHT22;25563;50.844;4.308;2024-03-06T11:27:04;13.90;94.50
39889;DHT22;25563;50.844;4.308;2024-03-06T11:32:30;13.60;94.70
39889;DHT22;25563;50.844;4.308;2024-03-06T11:34:55;13.60;94.40
39889;DHT22;25563;50.844;4.308;2024-03-06T11:37:21;13.90;93.60
39889;DHT22;25563;50.844;4.308;2024-03-06T11:39:48;14.30;93.40
39889;DHT22;25563;50.844;4.308;2024-03-06T11:42:14;14.80;92.80
39889;DHT22;25563;50.844;4.308;2024-03-06T11:44:53;15.10;92.70
39889;DHT22;25563;50.844;4.308;2024-03-06T11:47:20;15.20;92.00
39889;DHT22;25563;50.844;4.308;2024-03-06T11:49:46;15.70;90.80
39889;DHT22;25563;50.844;4.308;2024-03-06T11:52:11;16.10;90.00
39889;DHT22;25563;50.844;4.308;2024-03-06T11:54:37;16.70;88.00
39889;DHT22;25563;50.844;4.308;2024-03-06T11:57:05;18.30;84.90
39889;DHT22;25563;50.844;4.308;2024-03-06T11:59:35;21.30;79.30
39889;DHT22;25563;50.844;4.308;2024-03-06T12:02:03;24.00;73.40
39889;DHT22;25563;50.844;4.308;2024-03-06T12:04:35;24.50;69.10
39889;DHT22;25563;50.844;4.308;2024-03-06T12:07:08;26.00;66.10
39889;DHT22;25563;50.844;4.308;2024-03-06T12:09:37;26.50;64.80
39889;DHT22;25563;50.844;4.308;2024-03-06T12:12:06;26.70;62.80
39889;DHT22;25563;50.844;4.308;2024-03-06T12:14:35;26.80;61.30
39889;DHT22;25563;50.844;4.308;2024-03-06T12:17:04;27.90;61.30
39889;DHT22;25563;50.844;4.308;2024-03-06T12:19:34;29.50;58.90
39889;DHT22;25563;50.844;4.308;2024-03-06T12:22:02;29.10;57.70
39889;DHT22;25563;50.844;4.308;2024-03-06T12:24:30;28.80;57.00
39889;DHT22;25563;50.844;4.308;2024-03-06T12:27:02;29.10;56.60
39889;DHT22;25563;50.844;4.308;2024-03-06T12:29:31;29.30;55.50
39889;DHT22;25563;50.844;4.308;2024-03-06T12:31:58;30.10;54.90
39889;DHT22;25563;50.844;4.308;2024-03-06T12:34:24;30.20;54.60
39889;DHT22;25563;50.844;4.308;2024-03-06T12:36:49;28.00;55.90
39889;DHT22;25563;50.844;4.308;2024-03-06T12:39:17;26.20;57.40
39889;DHT22;25563;50.844;4.308;2024-03-06T12:41:51;25.30;58.00
39889;DHT22;25563;50.844;4.308;2024-03-06T12:44:17;26.00;57.60
39889;DHT22;25563;50.844;4.308;2024-03-06T12:46:43;26.50;56.90
39889;DHT22;25563;50.844;4.308;2024-03-06T12:49:09;25.70;57.10
39889;DHT22;25563;50.844;4.308;2024-03-06T12:51:35;24.70;57.30
39889;DHT22;25563;50.844;4.308;2024-03-06T12:54:01;24.20;58.30
39889;DHT22;25563;50.844;4.308;2024-03-06T12:56:28;23.70;58.20
39889;DHT22;25563;50.844;4.308;2024-03-06T12:58:55;22.40;59.40
39889;DHT22;25563;50.844;4.308;2024-03-06T13:01:25;21.10;61.10
39889;DHT22;25563;50.844;4.308;2024-03-06T13:03:52;19.90;63.40
39889;DHT22;25563;50.844;4.308;2024-03-06T13:06:19;19.00;64.30
39889;DHT22;25563;50.844;4.308;2024-03-06T13:08:44;18.60;66.40
39889;DHT22;25563;50.844;4.308;2024-03-06T13:11:10;18.10;67.00
39889;DHT22;25563;50.844;4.308;2024-03-06T13:13:38;17.70;68.10
39889;DHT22;25563;50.844;4.308;2024-03-06T13:16:04;17.20;68.90
39889;DHT22;25563;50.844;4.308;2024-03-06T13:18:33;16.70;69.20
39889;DHT22;25563;50.844;4.308;2024-03-06T13:20:59;16.40;69.70
39889;DHT22;25563;50.844;4.308;2024-03-06T13:23:26;16.10;70.70
39889;DHT22;25563;50.844;4.308;2024-03-06T13:25:51;16.00;71.10
39889;DHT22;25563;50.844;4.308;2024-03-06T13:28:18;15.80;71.10
39889;DHT22;25563;50.844;4.308;2024-03-06T13:30:45;15.70;72.00
39889;DHT22;25563;50.844;4.308;2024-03-06T13:33:11;15.60;72.00
39889;DHT22;25563;50.844;4.308;2024-03-06T13:35:37;15.60;72.70
39889;DHT22;25563;50.844;4.308;2024-03-06T13:38:03;15.60;73.30
39889;DHT22;25563;50.844;4.308;2024-03-06T13:40:29;15.70;70.90
39889;DHT22;25563;50.844;4.308;2024-03-06T13:42:54;15.60;70.30
39889;DHT22;25563;50.844;4.308;2024-03-06T13:45:21;15.90;69.60
39889;DHT22;25563;50.844;4.308;2024-03-06T13:47:46;15.50;70.60
39889;DHT22;25563;50.844;4.308;2024-03-06T13:50:15;15.20;71.80
39889;DHT22;25563;50.844;4.308;2024-03-06T13:52:42;15.20;71.40
39889;DHT22;25563;50.844;4.308;2024-03-06T13:55:08;15.20;72.20
39889;DHT22;25563;50.844;4.308;2024-03-06T13:57:37;15.00;73.90
39889;DHT22;25563;50.844;4.308;2024-03-06T14:00:05;14.80;75.00
39889;DHT22;25563;50.844;4.308;2024-03-06T14:02:31;14.60;76.00
39889;DHT22;25563;50.844;4.308;2024-03-06T14:04:58;14.50;76.00
39889;DHT22;25563;50.844;4.308;2024-03-06T14:07:25;14.50;76.10
39889;DHT22;25563;50.844;4.308;2024-03-06T14:09:51;14.60;76.40
39889;DHT22;25563;50.844;4.308;2024-03-06T14:12:17;14.60;76.60
39889;DHT22;25563;50.844;4.308;2024-03-06T14:14:43;14.60;76.10
39889;DHT22;25563;50.844;4.308;2024-03-06T14:17:11;14.50;75.70
39889;DHT22;25563;50.844;4.308;2024-03-06T14:19:39;14.50;75.60
39889;DHT22;25563;50.844;4.308;2024-03-06T14:22:06;14.50;75.80
39889;DHT22;25563;50.844;4.308;2024-03-06T14:24:33;14.60;76.20
39889;DHT22;25563;50.844;4.308;2024-03-06T14:26:58;14.70;75.80
39889;DHT22;25563;50.844;4.308;2024-03-06T14:29:25;14.70;75.60
39889;DHT22;25563;50.844;4.308;2024-03-06T14:31:54;14.60;75.40
39889;DHT22;25563;50.844;4.308;2024-03-06T14:34:20;14.60;75.80
39889;DHT22;25563;50.844;4.308;2024-03-06T14:36:47;14.60;75.60
39889;DHT22;25563;50.844;4.308;2024-03-06T14:39:12;14.70;75.20
39889;DHT22;25563;50.844;4.308;2024-03-06T14:41:40;14.80;75.20
39889;DHT22;25563;50.844;4.308;2024-03-06T14:44:11;14.90;75.00
39889;DHT22;25563;50.844;4.308;2024-03-06T14:46:42;15.00;75.40
39889;DHT22;25563;50.844;4.308;2024-03-06T14:49:08;15.10;75.40
39889;DHT22;25563;50.844;4.308;2024-03-06T14:51:34;15.10;75.50
39889;DHT22;25563;50.844;4.308;2024-03-06T14:54:00;15.20;75.80
39889;DHT22;25563;50.844;4.308;2024-03-06T14:56:27;15.40;75.70
39889;DHT22;25563;50.844;4.308;2024-03-06T14:58:53;15.40;75.90
39889;DHT22;25563;50.844;4.308;2024-03-06T15:01:19;15.40;76.20
39889;DHT22;25563;50.844;4.308;2024-03-06T15:03:45;15.50;76.50
39889;DHT22;25563;50.844;4.308;2024-03-06T15:06:11;15.50;77.10
39889;DHT22;25563;50.844;4.308;2024-03-06T15:08:39;15.40;78.00
39889;DHT22;25563;50.844;4.308;2024-03-06T15:11:05;15.40;76.90
39889;DHT22;25563;50.844;4.308;2024-03-06T15:13:31;15.40;75.80
39889;DHT22;25563;50.844;4.308;2024-03-06T15:15:58;15.40;73.60
39889;DHT22;25563;50.844;4.308;2024-03-06T15:18:24;15.40;74.20
39889;DHT22;25563;50.844;4.308;2024-03-06T15:20:51;15.40;73.20
39889;DHT22;25563;50.844;4.308;2024-03-06T15:23:18;15.30;73.90
39889;DHT22;25563;50.844;4.308;2024-03-06T15:25:44;15.20;76.50
39889;DHT22;25563;50.844;4.308;2024-03-06T15:28:10;15.00;77.10
39889;DHT22;25563;50.844;4.308;2024-03-06T15:30:38;15.10;77.50
39889;DHT22;25563;50.844;4.308;2024-03-06T15:33:04;15.10;76.60
39889;DHT22;25563;50.844;4.308;2024-03-06T15:35:33;15.20;75.20
39889;DHT22;25563;50.844;4.308;2024-03-06T15:37:59;15.50;73.50
39889;DHT22;25563;50.844;4.308;2024-03-06T15:40:24;15.60;74.50
39889;DHT22;25563;50.844;4.308;2024-03-06T15:42:52;15.80;73.00
39889;DHT22;25563;50.844;4.308;2024-03-06T15:45:18;16.10;71.90